sensor_id;sensor_type;location;lat;lon;timestamp;P1;durP1;ratioP1;P2;durP2;ratioP2
12958;SDS011;6544;51.666;6.634;2022-08-25T00:01:07;5.63;;;2.90;;
12958;SDS011;6544;51.666;6.634;2022-08-25T00:03:35;5.05;;;3.20;;
12958;SDS011;6544;51.666;6.634;2022-08-25T00:06:02;8.30;;;3.22;;
12958;SDS011;6544;51.666;6.634;2022-08-25T00:08:30;6.57;;;2.95;;
12958;SDS011;6544;51.666;6.634;2022-08-25T00:10:59;4.60;;;2.83;;
12958;SDS011;6544;51.666;6.634;2022-08-25T00:13:25;5.20;;;3.50;;
12958;SDS011;6544;51.666;6.634;2022-08-25T00:15:54;6.68;;;3.13;;
12958;SDS011;6544;51.666;6.634;2022-08-25T00:18:21;5.78;;;3.00;;
12958;SDS011;6544;51.666;6.634;2022-08-25T00:20:49;4.05;;;3.20;;
12958;SDS011;6544;51.666;6.634;2022-08-25T00:23:16;6.57;;;3.05;;
12958;SDS011;6544;51.666;6.634;2022-08-25T00:25:44;6.10;;;3.47;;
12958;SDS011;6544;51.666;6.634;2022-08-25T00:28:11;11.20;;;4.07;;
12958;SDS011;6544;51.666;6.634;2022-08-25T00:30:40;7.00;;;3.25;;
12958;SDS011;6544;51.666;6.634;2022-08-25T00:33:09;4.68;;;3.15;;
12958;SDS011;6544;51.666;6.634;2022-08-25T00:35:36;15.50;;;3.67;;
12958;SDS011;6544;51.666;6.634;2022-08-25T00:38:05;5.28;;;3.78;;
12958;SDS011;6544;51.666;6.634;2022-08-25T00:40:32;4.40;;;3.50;;
12958;SDS011;6544;51.666;6.634;2022-08-25T00:42:59;4.63;;;2.90;;
12958;SDS011;6544;51.666;6.634;2022-08-25T00:45:26;8.50;;;3.78;;
12958;SDS011;6544;51.666;6.634;2022-08-25T00:47:53;6.93;;;3.53;;
12958;SDS011;6544;51.666;6.634;2022-08-25T00:50:22;6.25;;;3.15;;
12958;SDS011;6544;51.666;6.634;2022-08-25T00:52:51;7.50;;;3.92;;
12958;SDS011;6544;51.666;6.634;2022-08-25T00:55:21;7.80;;;3.90;;
12958;SDS011;6544;51.666;6.634;2022-08-25T00:57:55;5.60;;;3.17;;
12958;SDS011;6544;51.666;6.634;2022-08-25T01:00:26;5.90;;;3.75;;
12958;SDS011;6544;51.666;6.634;2022-08-25T01:02:55;6.22;;;3.60;;
12958;SDS011;6544;51.666;6.634;2022-08-25T01:05:24;7.38;;;3.20;;
12958;SDS011;6544;51.666;6.634;2022-08-25T01:07:52;12.65;;;3.92;;
12958;SDS011;6544;51.666;6.634;2022-08-25T01:10:21;9.07;;;3.88;;
12958;SDS011;6544;51.666;6.634;2022-08-25T01:12:48;7.13;;;4.25;;
12958;SDS011;6544;51.666;6.634;2022-08-25T01:15:18;6.47;;;3.83;;
12958;SDS011;6544;51.666;6.634;2022-08-25T01:17:47;8.32;;;3.20;;
12958;SDS011;6544;51.666;6.634;2022-08-25T01:20:16;5.57;;;3.20;;
12958;SDS011;6544;51.666;6.634;2022-08-25T01:22:46;8.32;;;3.22;;
12958;SDS011;6544;51.666;6.634;2022-08-25T01:25:17;7.07;;;4.10;;
12958;SDS011;6544;51.666;6.634;2022-08-25T01:27:53;11.05;;;3.08;;
12958;SDS011;6544;51.666;6.634;2022-08-25T01:30:20;6.10;;;3.80;;
12958;SDS011;6544;51.666;6.634;2022-08-25T01:32:47;6.65;;;3.20;;
12958;SDS011;6544;51.666;6.634;2022-08-25T01:35:14;5.53;;;3.20;;
12958;SDS011;6544;51.666;6.634;2022-08-25T01:37:41;5.90;;;3.25;;
12958;SDS011;6544;51.666;6.634;2022-08-25T01:40:10;6.82;;;4.00;;
12958;SDS011;6544;51.666;6.634;2022-08-25T01:42:41;4.78;;;3.17;;
12958;SDS011;6544;51.666;6.634;2022-08-25T01:45:23;9.98;;;3.90;;
12958;SDS011;6544;51.666;6.634;2022-08-25T01:47:51;5.70;;;3.17;;
12958;SDS011;6544;51.666;6.634;2022-08-25T01:50:18;5.65;;;3.63;;
12958;SDS011;6544;51.666;6.634;2022-08-25T01:52:49;8.52;;;3.58;;
12958;SDS011;6544;51.666;6.634;2022-08-25T01:55:21;6.50;;;3.95;;
12958;SDS011;6544;51.666;6.634;2022-08-25T01:57:48;7.57;;;3.90;;
12958;SDS011;6544;51.666;6.634;2022-08-25T02:00:16;5.68;;;3.55;;
12958;SDS011;6544;51.666;6.634;2022-08-25T02:02:45;5.72;;;3.55;;
12958;SDS011;6544;51.666;6.634;2022-08-25T02:05:12;9.07;;;3.20;;
12958;SDS011;6544;51.666;6.634;2022-08-25T02:07:40;6.53;;;4.10;;
12958;SDS011;6544;51.666;6.634;2022-08-25T02:10:08;4.43;;;3.28;;
12958;SDS011;6544;51.666;6.634;2022-08-25T02:12:37;8.35;;;3.97;;
12958;SDS011;6544;51.666;6.634;2022-08-25T02:15:05;6.57;;;4.00;;
12958;SDS011;6544;51.666;6.634;2022-08-25T02:17:33;6.63;;;3.90;;
12958;SDS011;6544;51.666;6.634;2022-08-25T02:20:01;5.38;;;3.60;;
12958;SDS011;6544;51.666;6.634;2022-08-25T02:22:29;7.68;;;3.97;;
12958;SDS011;6544;51.666;6.634;2022-08-25T02:24:55;7.25;;;3.30;;
12958;SDS011;6544;51.666;6.634;2022-08-25T02:27:23;5.43;;;3.42;;
12958;SDS011;6544;51.666;6.634;2022-08-25T02:29:51;4.13;;;3.38;;
12958;SDS011;6544;51.666;6.634;2022-08-25T02:32:18;6.47;;;3.42;;
12958;SDS011;6544;51.666;6.634;2022-08-25T02:34:45;7.00;;;3.25;;
12958;SDS011;6544;51.666;6.634;2022-08-25T02:37:12;4.72;;;3.47;;
12958;SDS011;6544;51.666;6.634;2022-08-25T02:39:39;8.25;;;4.15;;
12958;SDS011;6544;51.666;6.634;2022-08-25T02:42:06;12.35;;;3.78;;
12958;SDS011;6544;51.666;6.634;2022-08-25T02:44:33;6.68;;;4.10;;
12958;SDS011;6544;51.666;6.634;2022-08-25T02:47:01;6.40;;;3.70;;
12958;SDS011;6544;51.666;6.634;2022-08-25T02:49:28;4.82;;;3.35;;
12958;SDS011;6544;51.666;6.634;2022-08-25T02:51:56;6.50;;;3.38;;
12958;SDS011;6544;51.666;6.634;2022-08-25T02:54:24;8.57;;;4.15;;
12958;SDS011;6544;51.666;6.634;2022-08-25T02:56:51;4.50;;;3.60;;
12958;SDS011;6544;51.666;6.634;2022-08-25T02:59:18;6.10;;;3.50;;
12958;SDS011;6544;51.666;6.634;2022-08-25T03:01:45;9.52;;;3.88;;
12958;SDS011;6544;51.666;6.634;2022-08-25T03:04:14;6.43;;;3.60;;
12958;SDS011;6544;51.666;6.634;2022-08-25T03:06:40;7.10;;;4.05;;
12958;SDS011;6544;51.666;6.634;2022-08-25T03:09:07;7.18;;;3.47;;
12958;SDS011;6544;51.666;6.634;2022-08-25T03:11:34;5.30;;;4.00;;
12958;SDS011;6544;51.666;6.634;2022-08-25T03:14:02;4.68;;;3.50;;
12958;SDS011;6544;51.666;6.634;2022-08-25T03:16:29;8.80;;;3.95;;
12958;SDS011;6544;51.666;6.634;2022-08-25T03:18:56;8.73;;;3.63;;
12958;SDS011;6544;51.666;6.634;2022-08-25T03:21:25;7.65;;;4.35;;
12958;SDS011;6544;51.666;6.634;2022-08-25T03:23:53;8.15;;;3.83;;
12958;SDS011;6544;51.666;6.634;2022-08-25T03:26:20;6.88;;;3.55;;
12958;SDS011;6544;51.666;6.634;2022-08-25T03:29:01;8.45;;;4.32;;
12958;SDS011;6544;51.666;6.634;2022-08-25T03:31:29;5.47;;;4.45;;
12958;SDS011;6544;51.666;6.634;2022-08-25T03:33:56;6.65;;;3.83;;
12958;SDS011;6544;51.666;6.634;2022-08-25T03:36:26;8.10;;;4.15;;
12958;SDS011;6544;51.666;6.634;2022-08-25T03:38:53;6.50;;;3.80;;
12958;SDS011;6544;51.666;6.634;2022-08-25T03:41:22;5.57;;;3.50;;
12958;SDS011;6544;51.666;6.634;2022-08-25T03:43:52;5.13;;;3.88;;
12958;SDS011;6544;51.666;6.634;2022-08-25T03:46:21;5.85;;;3.47;;
12958;SDS011;6544;51.666;6.634;2022-08-25T03:48:49;7.32;;;3.53;;
12958;SDS011;6544;51.666;6.634;2022-08-25T03:51:20;8.02;;;4.10;;
12958;SDS011;6544;51.666;6.634;2022-08-25T03:53:50;8.60;;;3.58;;
12958;SDS011;6544;51.666;6.634;2022-08-25T03:56:18;7.40;;;3.80;;
12958;SDS011;6544;51.666;6.634;2022-08-25T03:58:45;9.30;;;3.50;;
12958;SDS011;6544;51.666;6.634;2022-08-25T04:01:12;7.45;;;3.47;;
12958;SDS011;6544;51.666;6.634;2022-08-25T04:03:39;6.45;;;4.05;;
12958;SDS011;6544;51.666;6.634;2022-08-25T04:06:06;5.68;;;3.50;;
12958;SDS011;6544;51.666;6.634;2022-08-25T04:08:33;8.20;;;3.53;;
12958;SDS011;6544;51.666;6.634;2022-08-25T04:11:05;6.90;;;3.20;;
12958;SDS011;6544;51.666;6.634;2022-08-25T04:13:33;7.50;;;3.75;;
12958;SDS011;6544;51.666;6.634;2022-08-25T04:16:01;7.70;;;3.97;;
12958;SDS011;6544;51.666;6.634;2022-08-25T04:18:28;6.07;;;4.13;;
12958;SDS011;6544;51.666;6.634;2022-08-25T04:21:00;5.90;;;3.80;;
12958;SDS011;6544;51.666;6.634;2022-08-25T04:23:28;6.93;;;3.95;;
12958;SDS011;6544;51.666;6.634;2022-08-25T04:25:54;6.40;;;3.72;;
12958;SDS011;6544;51.666;6.634;2022-08-25T04:28:23;8.02;;;4.25;;
12958;SDS011;6544;51.666;6.634;2022-08-25T04:30:50;4.68;;;3.90;;
12958;SDS011;6544;51.666;6.634;2022-08-25T04:33:17;7.38;;;3.80;;
12958;SDS011;6544;51.666;6.634;2022-08-25T04:35:45;7.57;;;4.10;;
12958;SDS011;6544;51.666;6.634;2022-08-25T04:38:14;5.22;;;3.95;;
12958;SDS011;6544;51.666;6.634;2022-08-25T04:40:40;10.90;;;4.05;;
12958;SDS011;6544;51.666;6.634;2022-08-25T04:43:07;8.52;;;3.72;;
12958;SDS011;6544;51.666;6.634;2022-08-25T04:45:37;6.78;;;3.90;;
12958;SDS011;6544;51.666;6.634;2022-08-25T04:48:04;8.27;;;4.15;;
12958;SDS011;6544;51.666;6.634;2022-08-25T04:50:31;7.15;;;3.58;;
12958;SDS011;6544;51.666;6.634;2022-08-25T04:52:58;5.18;;;3.45;;
12958;SDS011;6544;51.666;6.634;2022-08-25T04:55:25;8.77;;;3.80;;
12958;SDS011;6544;51.666;6.634;2022-08-25T04:57:52;6.43;;;3.55;;
12958;SDS011;6544;51.666;6.634;2022-08-25T05:00:19;6.07;;;4.43;;
12958;SDS011;6544;51.666;6.634;2022-08-25T05:02:47;8.15;;;3.75;;
12958;SDS011;6544;51.666;6.634;2022-08-25T05:05:15;5.35;;;3.75;;
12958;SDS011;6544;51.666;6.634;2022-08-25T05:07:42;6.88;;;3.30;;
12958;SDS011;6544;51.666;6.634;2022-08-25T05:10:09;7.93;;;4.13;;
12958;SDS011;6544;51.666;6.634;2022-08-25T05:12:36;7.32;;;3.78;;
12958;SDS011;6544;51.666;6.634;2022-08-25T05:15:03;5.43;;;3.38;;
12958;SDS011;6544;51.666;6.634;2022-08-25T05:17:44;9.00;;;3.90;;
12958;SDS011;6544;51.666;6.634;2022-08-25T05:20:12;9.00;;;3.72;;
12958;SDS011;6544;51.666;6.634;2022-08-25T05:22:42;7.05;;;3.50;;
12958;SDS011;6544;51.666;6.634;2022-08-25T05:25:10;4.88;;;3.88;;
12958;SDS011;6544;51.666;6.634;2022-08-25T05:27:38;8.18;;;3.53;;
12958;SDS011;6544;51.666;6.634;2022-08-25T05:30:06;6.63;;;3.78;;
12958;SDS011;6544;51.666;6.634;2022-08-25T05:32:34;7.15;;;3.70;;
12958;SDS011;6544;51.666;6.634;2022-08-25T05:35:02;5.88;;;3.63;;
12958;SDS011;6544;51.666;6.634;2022-08-25T05:37:30;4.70;;;3.60;;
12958;SDS011;6544;51.666;6.634;2022-08-25T05:39:58;7.47;;;3.80;;
12958;SDS011;6544;51.666;6.634;2022-08-25T05:42:25;6.55;;;3.53;;
12958;SDS011;6544;51.666;6.634;2022-08-25T05:44:52;8.35;;;3.55;;
12958;SDS011;6544;51.666;6.634;2022-08-25T05:47:19;12.75;;;3.58;;
12958;SDS011;6544;51.666;6.634;2022-08-25T05:49:46;9.23;;;3.97;;
12958;SDS011;6544;51.666;6.634;2022-08-25T05:52:13;6.43;;;3.58;;
12958;SDS011;6544;51.666;6.634;2022-08-25T05:54:42;7.07;;;3.65;;
12958;SDS011;6544;51.666;6.634;2022-08-25T05:57:09;5.40;;;3.97;;
12958;SDS011;6544;51.666;6.634;2022-08-25T05:59:35;10.95;;;4.10;;
12958;SDS011;6544;51.666;6.634;2022-08-25T06:02:02;5.45;;;4.07;;
12958;SDS011;6544;51.666;6.634;2022-08-25T06:04:47;8.98;;;3.70;;
12958;SDS011;6544;51.666;6.634;2022-08-25T06:07:14;8.98;;;3.60;;
12958;SDS011;6544;51.666;6.634;2022-08-25T06:09:42;10.55;;;3.88;;
12958;SDS011;6544;51.666;6.634;2022-08-25T06:12:12;10.60;;;3.92;;
12958;SDS011;6544;51.666;6.634;2022-08-25T06:14:39;8.90;;;4.30;;
12958;SDS011;6544;51.666;6.634;2022-08-25T06:17:06;6.30;;;3.55;;
12958;SDS011;6544;51.666;6.634;2022-08-25T06:19:33;7.70;;;3.70;;
12958;SDS011;6544;51.666;6.634;2022-08-25T06:22:00;5.13;;;3.65;;
12958;SDS011;6544;51.666;6.634;2022-08-25T06:24:27;7.13;;;3.90;;
12958;SDS011;6544;51.666;6.634;2022-08-25T06:26:56;6.55;;;3.78;;
12958;SDS011;6544;51.666;6.634;2022-08-25T06:29:24;6.88;;;4.03;;
12958;SDS011;6544;51.666;6.634;2022-08-25T06:31:51;9.52;;;3.75;;
12958;SDS011;6544;51.666;6.634;2022-08-25T06:34:18;12.27;;;3.85;;
12958;SDS011;6544;51.666;6.634;2022-08-25T06:36:45;10.95;;;3.88;;
12958;SDS011;6544;51.666;6.634;2022-08-25T06:39:14;6.28;;;3.83;;
12958;SDS011;6544;51.666;6.634;2022-08-25T06:41:41;8.45;;;4.10;;
12958;SDS011;6544;51.666;6.634;2022-08-25T06:44:10;6.25;;;3.55;;
12958;SDS011;6544;51.666;6.634;2022-08-25T06:46:37;6.60;;;3.92;;
12958;SDS011;6544;51.666;6.634;2022-08-25T06:49:04;7.43;;;3.70;;
12958;SDS011;6544;51.666;6.634;2022-08-25T06:51:32;8.23;;;3.65;;
12958;SDS011;6544;51.666;6.634;2022-08-25T06:54:00;9.55;;;3.80;;
12958;SDS011;6544;51.666;6.634;2022-08-25T06:56:28;10.48;;;4.20;;
12958;SDS011;6544;51.666;6.634;2022-08-25T06:58:55;9.50;;;3.38;;
12958;SDS011;6544;51.666;6.634;2022-08-25T07:01:24;8.75;;;3.65;;
12958;SDS011;6544;51.666;6.634;2022-08-25T07:03:52;10.10;;;3.30;;
12958;SDS011;6544;51.666;6.634;2022-08-25T07:06:21;5.82;;;3.47;;
12958;SDS011;6544;51.666;6.634;2022-08-25T07:08:49;9.63;;;3.85;;
12958;SDS011;6544;51.666;6.634;2022-08-25T07:11:16;7.93;;;3.50;;
12958;SDS011;6544;51.666;6.634;2022-08-25T07:13:45;11.13;;;3.65;;
12958;SDS011;6544;51.666;6.634;2022-08-25T07:16:13;13.63;;;3.30;;
12958;SDS011;6544;51.666;6.634;2022-08-25T07:18:42;8.75;;;3.40;;
12958;SDS011;6544;51.666;6.634;2022-08-25T07:21:09;10.32;;;3.83;;
12958;SDS011;6544;51.666;6.634;2022-08-25T07:23:36;10.10;;;3.88;;
12958;SDS011;6544;51.666;6.634;2022-08-25T07:26:07;7.70;;;3.67;;
12958;SDS011;6544;51.666;6.634;2022-08-25T07:28:35;6.57;;;3.67;;
12958;SDS011;6544;51.666;6.634;2022-08-25T07:31:02;8.98;;;3.55;;
12958;SDS011;6544;51.666;6.634;2022-08-25T07:33:29;8.45;;;3.95;;
12958;SDS011;6544;51.666;6.634;2022-08-25T07:35:58;6.22;;;3.45;;
12958;SDS011;6544;51.666;6.634;2022-08-25T07:38:24;7.25;;;3.95;;
12958;SDS011;6544;51.666;6.634;2022-08-25T07:40:50;5.45;;;3.20;;
12958;SDS011;6544;51.666;6.634;2022-08-25T07:43:20;10.38;;;4.07;;
12958;SDS011;6544;51.666;6.634;2022-08-25T07:45:47;8.07;;;3.53;;
12958;SDS011;6544;51.666;6.634;2022-08-25T07:48:15;8.68;;;3.63;;
12958;SDS011;6544;51.666;6.634;2022-08-25T07:50:44;5.57;;;3.22;;
12958;SDS011;6544;51.666;6.634;2022-08-25T07:53:14;9.45;;;3.70;;
12958;SDS011;6544;51.666;6.634;2022-08-25T07:55:42;8.57;;;3.30;;
12958;SDS011;6544;51.666;6.634;2022-08-25T07:58:09;8.77;;;3.17;;
12958;SDS011;6544;51.666;6.634;2022-08-25T08:00:36;13.50;;;3.85;;
12958;SDS011;6544;51.666;6.634;2022-08-25T08:03:06;7.97;;;3.85;;
12958;SDS011;6544;51.666;6.634;2022-08-25T08:05:34;7.35;;;3.80;;
12958;SDS011;6544;51.666;6.634;2022-08-25T08:08:02;5.05;;;3.45;;
12958;SDS011;6544;51.666;6.634;2022-08-25T08:10:30;9.40;;;4.22;;
12958;SDS011;6544;51.666;6.634;2022-08-25T08:12:57;4.78;;;3.45;;
12958;SDS011;6544;51.666;6.634;2022-08-25T08:15:24;6.03;;;3.65;;
12958;SDS011;6544;51.666;6.634;2022-08-25T08:17:51;6.53;;;3.50;;
12958;SDS011;6544;51.666;6.634;2022-08-25T08:20:18;8.50;;;3.83;;
12958;SDS011;6544;51.666;6.634;2022-08-25T08:22:45;4.60;;;3.38;;
12958;SDS011;6544;51.666;6.634;2022-08-25T08:25:12;6.43;;;4.00;;
12958;SDS011;6544;51.666;6.634;2022-08-25T08:27:41;5.78;;;3.45;;
12958;SDS011;6544;51.666;6.634;2022-08-25T08:30:10;7.65;;;3.92;;
12958;SDS011;6544;51.666;6.634;2022-08-25T08:32:38;6.25;;;3.42;;
12958;SDS011;6544;51.666;6.634;2022-08-25T08:35:05;7.93;;;3.30;;
12958;SDS011;6544;51.666;6.634;2022-08-25T08:37:33;7.35;;;3.80;;
12958;SDS011;6544;51.666;6.634;2022-08-25T08:40:02;4.18;;;3.22;;
12958;SDS011;6544;51.666;6.634;2022-08-25T08:42:36;6.47;;;3.65;;
12958;SDS011;6544;51.666;6.634;2022-08-25T08:45:22;8.32;;;3.50;;
12958;SDS011;6544;51.666;6.634;2022-08-25T08:48:13;6.05;;;3.55;;
12958;SDS011;6544;51.666;6.634;2022-08-25T08:50:53;8.85;;;3.58;;
12958;SDS011;6544;51.666;6.634;2022-08-25T08:53:30;7.40;;;3.42;;
12958;SDS011;6544;51.666;6.634;2022-08-25T08:56:05;7.30;;;4.03;;
12958;SDS011;6544;51.666;6.634;2022-08-25T08:58:39;9.82;;;3.58;;
12958;SDS011;6544;51.666;6.634;2022-08-25T09:01:09;7.40;;;3.47;;
12958;SDS011;6544;51.666;6.634;2022-08-25T09:03:42;7.57;;;3.80;;
12958;SDS011;6544;51.666;6.634;2022-08-25T09:06:12;6.40;;;3.22;;
12958;SDS011;6544;51.666;6.634;2022-08-25T09:08:45;4.40;;;3.20;;
12958;SDS011;6544;51.666;6.634;2022-08-25T09:11:17;8.13;;;3.55;;
12958;SDS011;6544;51.666;6.634;2022-08-25T09:13:59;9.18;;;3.80;;
12958;SDS011;6544;51.666;6.634;2022-08-25T09:16:37;15.43;;;3.90;;
12958;SDS011;6544;51.666;6.634;2022-08-25T09:19:24;8.05;;;3.85;;
12958;SDS011;6544;51.666;6.634;2022-08-25T09:22:14;7.50;;;3.65;;
12958;SDS011;6544;51.666;6.634;2022-08-25T09:24:52;8.80;;;3.45;;
12958;SDS011;6544;51.666;6.634;2022-08-25T09:27:23;7.45;;;3.58;;
12958;SDS011;6544;51.666;6.634;2022-08-25T09:30:00;5.38;;;3.65;;
12958;SDS011;6544;51.666;6.634;2022-08-25T09:32:33;5.32;;;3.67;;
12958;SDS011;6544;51.666;6.634;2022-08-25T09:35:03;8.23;;;3.78;;
12958;SDS011;6544;51.666;6.634;2022-08-25T09:37:33;5.28;;;3.40;;
12958;SDS011;6544;51.666;6.634;2022-08-25T09:40:00;6.32;;;3.45;;
12958;SDS011;6544;51.666;6.634;2022-08-25T09:42:46;5.45;;;3.30;;
12958;SDS011;6544;51.666;6.634;2022-08-25T09:45:16;6.13;;;3.97;;
12958;SDS011;6544;51.666;6.634;2022-08-25T09:47:58;6.15;;;3.53;;
12958;SDS011;6544;51.666;6.634;2022-08-25T09:50:25;6.63;;;3.55;;
12958;SDS011;6544;51.666;6.634;2022-08-25T09:53:00;8.48;;;3.05;;
12958;SDS011;6544;51.666;6.634;2022-08-25T09:55:38;5.80;;;3.75;;
12958;SDS011;6544;51.666;6.634;2022-08-25T09:58:12;6.03;;;3.42;;
12958;SDS011;6544;51.666;6.634;2022-08-25T10:00:44;8.35;;;3.30;;
12958;SDS011;6544;51.666;6.634;2022-08-25T10:03:30;7.97;;;3.78;;
12958;SDS011;6544;51.666;6.634;2022-08-25T10:06:00;6.53;;;3.55;;
12958;SDS011;6544;51.666;6.634;2022-08-25T10:08:32;6.93;;;3.25;;
12958;SDS011;6544;51.666;6.634;2022-08-25T10:11:02;5.25;;;3.00;;
12958;SDS011;6544;51.666;6.634;2022-08-25T10:13:34;5.88;;;3.08;;
12958;SDS011;6544;51.666;6.634;2022-08-25T10:16:06;4.50;;;3.25;;
12958;SDS011;6544;51.666;6.634;2022-08-25T10:18:36;5.88;;;3.45;;
12958;SDS011;6544;51.666;6.634;2022-08-25T10:21:04;7.22;;;3.03;;
12958;SDS011;6544;51.666;6.634;2022-08-25T10:23:35;10.07;;;3.20;;
12958;SDS011;6544;51.666;6.634;2022-08-25T10:26:08;5.20;;;3.05;;
12958;SDS011;6544;51.666;6.634;2022-08-25T10:28:41;3.97;;;2.97;;
12958;SDS011;6544;51.666;6.634;2022-08-25T10:31:20;4.45;;;3.00;;
12958;SDS011;6544;51.666;6.634;2022-08-25T10:33:57;4.20;;;3.05;;
12958;SDS011;6544;51.666;6.634;2022-08-25T10:36:37;8.93;;;3.15;;
12958;SDS011;6544;51.666;6.634;2022-08-25T10:39:16;5.70;;;2.90;;
12958;SDS011;6544;51.666;6.634;2022-08-25T10:41:53;3.33;;;2.83;;
12958;SDS011;6544;51.666;6.634;2022-08-25T10:44:29;9.23;;;3.55;;
12958;SDS011;6544;51.666;6.634;2022-08-25T10:47:31;4.13;;;3.10;;
12958;SDS011;6544;51.666;6.634;2022-08-25T10:50:12;4.00;;;2.90;;
12958;SDS011;6544;51.666;6.634;2022-08-25T10:52:49;7.60;;;3.05;;
12958;SDS011;6544;51.666;6.634;2022-08-25T10:55:41;6.18;;;3.15;;
12958;SDS011;6544;51.666;6.634;2022-08-25T10:58:16;4.00;;;2.83;;
12958;SDS011;6544;51.666;6.634;2022-08-25T11:00:53;4.63;;;2.83;;
12958;SDS011;6544;51.666;6.634;2022-08-25T11:03:32;4.72;;;2.80;;
12958;SDS011;6544;51.666;6.634;2022-08-25T11:06:11;4.68;;;2.95;;
12958;SDS011;6544;51.666;6.634;2022-08-25T11:08:43;8.07;;;3.50;;
12958;SDS011;6544;51.666;6.634;2022-08-25T11:11:17;4.90;;;2.83;;
12958;SDS011;6544;51.666;6.634;2022-08-25T11:13:51;4.68;;;2.50;;
12958;SDS011;6544;51.666;6.634;2022-08-25T11:16:25;8.02;;;2.78;;
12958;SDS011;6544;51.666;6.634;2022-08-25T11:19:02;5.00;;;2.30;;
12958;SDS011;6544;51.666;6.634;2022-08-25T11:21:37;4.30;;;2.50;;
12958;SDS011;6544;51.666;6.634;2022-08-25T11:24:26;4.50;;;2.22;;
12958;SDS011;6544;51.666;6.634;2022-08-25T11:27:03;5.65;;;2.50;;
12958;SDS011;6544;51.666;6.634;2022-08-25T11:29:32;3.25;;;2.60;;
12958;SDS011;6544;51.666;6.634;2022-08-25T11:32:02;4.10;;;2.97;;
12958;SDS011;6544;51.666;6.634;2022-08-25T11:34:32;5.13;;;2.72;;
12958;SDS011;6544;51.666;6.634;2022-08-25T11:37:02;4.20;;;2.78;;
12958;SDS011;6544;51.666;6.634;2022-08-25T11:39:40;6.78;;;3.33;;
12958;SDS011;6544;51.666;6.634;2022-08-25T11:42:29;6.18;;;3.08;;
12958;SDS011;6544;51.666;6.634;2022-08-25T11:45:03;4.93;;;2.60;;
12958;SDS011;6544;51.666;6.634;2022-08-25T11:47:44;3.10;;;2.67;;
12958;SDS011;6544;51.666;6.634;2022-08-25T11:50:27;4.90;;;2.60;;
12958;SDS011;6544;51.666;6.634;2022-08-25T11:52:59;5.82;;;2.40;;
12958;SDS011;6544;51.666;6.634;2022-08-25T11:55:45;6.68;;;2.75;;
12958;SDS011;6544;51.666;6.634;2022-08-25T11:58:26;10.70;;;2.60;;
12958;SDS011;6544;51.666;6.634;2022-08-25T12:00:58;5.63;;;2.80;;
12958;SDS011;6544;51.666;6.634;2022-08-25T12:06:27;4.65;;;2.72;;
12958;SDS011;6544;51.666;6.634;2022-08-25T12:09:14;4.35;;;2.65;;
12958;SDS011;6544;51.666;6.634;2022-08-25T12:11:50;8.77;;;2.33;;
12958;SDS011;6544;51.666;6.634;2022-08-25T12:17:17;3.60;;;2.38;;
12958;SDS011;6544;51.666;6.634;2022-08-25T12:19:54;3.70;;;2.55;;
12958;SDS011;6544;51.666;6.634;2022-08-25T12:22:52;4.05;;;2.65;;
12958;SDS011;6544;51.666;6.634;2022-08-25T12:25:38;3.50;;;2.75;;
12958;SDS011;6544;51.666;6.634;2022-08-25T12:31:17;8.73;;;2.95;;
12958;SDS011;6544;51.666;6.634;2022-08-25T12:33:55;8.25;;;2.83;;
12958;SDS011;6544;51.666;6.634;2022-08-25T12:36:32;3.80;;;2.60;;
12958;SDS011;6544;51.666;6.634;2022-08-25T12:39:16;5.00;;;2.60;;
12958;SDS011;6544;51.666;6.634;2022-08-25T12:41:52;4.60;;;2.95;;
12958;SDS011;6544;51.666;6.634;2022-08-25T12:47:30;4.45;;;2.42;;
12958;SDS011;6544;51.666;6.634;2022-08-25T12:53:09;4.85;;;2.60;;
12958;SDS011;6544;51.666;6.634;2022-08-25T12:55:41;5.88;;;2.38;;
12958;SDS011;6544;51.666;6.634;2022-08-25T12:58:14;3.65;;;2.60;;
12958;SDS011;6544;51.666;6.634;2022-08-25T13:00:48;6.68;;;3.00;;
12958;SDS011;6544;51.666;6.634;2022-08-25T13:03:44;2.90;;;2.60;;
12958;SDS011;6544;51.666;6.634;2022-08-25T13:06:31;3.97;;;2.60;;
12958;SDS011;6544;51.666;6.634;2022-08-25T13:09:17;5.30;;;2.88;;
12958;SDS011;6544;51.666;6.634;2022-08-25T13:12:12;5.05;;;2.80;;
12958;SDS011;6544;51.666;6.634;2022-08-25T13:14:43;3.42;;;3.00;;
12958;SDS011;6544;51.666;6.634;2022-08-25T13:17:23;6.40;;;3.08;;
12958;SDS011;6544;51.666;6.634;2022-08-25T13:19:51;6.50;;;3.38;;
12958;SDS011;6544;51.666;6.634;2022-08-25T13:22:35;4.75;;;3.47;;
12958;SDS011;6544;51.666;6.634;2022-08-25T13:25:03;7.13;;;4.03;;
12958;SDS011;6544;51.666;6.634;2022-08-25T13:27:32;3.67;;;3.28;;
12958;SDS011;6544;51.666;6.634;2022-08-25T13:30:00;7.35;;;3.50;;
12958;SDS011;6544;51.666;6.634;2022-08-25T13:32:30;7.03;;;3.15;;
12958;SDS011;6544;51.666;6.634;2022-08-25T13:35:11;3.97;;;2.55;;
12958;SDS011;6544;51.666;6.634;2022-08-25T13:37:40;5.85;;;2.70;;
12958;SDS011;6544;51.666;6.634;2022-08-25T13:40:08;6.00;;;3.03;;
12958;SDS011;6544;51.666;6.634;2022-08-25T13:42:38;5.20;;;3.10;;
12958;SDS011;6544;51.666;6.634;2022-08-25T13:45:07;7.75;;;3.40;;
12958;SDS011;6544;51.666;6.634;2022-08-25T13:47:38;4.55;;;3.20;;
12958;SDS011;6544;51.666;6.634;2022-08-25T13:50:16;6.43;;;3.80;;
12958;SDS011;6544;51.666;6.634;2022-08-25T13:52:46;6.97;;;3.60;;
12958;SDS011;6544;51.666;6.634;2022-08-25T13:55:19;4.60;;;3.33;;
12958;SDS011;6544;51.666;6.634;2022-08-25T13:57:49;8.10;;;3.47;;
12958;SDS011;6544;51.666;6.634;2022-08-25T14:00:24;4.55;;;3.53;;
12958;SDS011;6544;51.666;6.634;2022-08-25T14:02:57;6.00;;;3.53;;
12958;SDS011;6544;51.666;6.634;2022-08-25T14:05:31;6.40;;;3.60;;
12958;SDS011;6544;51.666;6.634;2022-08-25T14:08:01;5.50;;;3.30;;
12958;SDS011;6544;51.666;6.634;2022-08-25T14:10:31;4.15;;;3.30;;
12958;SDS011;6544;51.666;6.634;2022-08-25T14:13:13;4.95;;;3.55;;
12958;SDS011;6544;51.666;6.634;2022-08-25T14:15:42;4.32;;;3.40;;
12958;SDS011;6544;51.666;6.634;2022-08-25T14:18:12;4.90;;;3.50;;
12958;SDS011;6544;51.666;6.634;2022-08-25T14:20:44;5.47;;;3.30;;
12958;SDS011;6544;51.666;6.634;2022-08-25T14:23:17;6.00;;;3.30;;
12958;SDS011;6544;51.666;6.634;2022-08-25T14:25:47;8.07;;;3.78;;
12958;SDS011;6544;51.666;6.634;2022-08-25T14:28:18;7.57;;;3.70;;
12958;SDS011;6544;51.666;6.634;2022-08-25T14:30:47;9.55;;;3.78;;
12958;SDS011;6544;51.666;6.634;2022-08-25T14:33:16;8.15;;;3.78;;
12958;SDS011;6544;51.666;6.634;2022-08-25T14:35:45;7.38;;;3.95;;
12958;SDS011;6544;51.666;6.634;2022-08-25T14:38:15;7.80;;;3.55;;
12958;SDS011;6544;51.666;6.634;2022-08-25T14:40:44;9.20;;;3.92;;
12958;SDS011;6544;51.666;6.634;2022-08-25T14:43:12;6.38;;;3.45;;
12958;SDS011;6544;51.666;6.634;2022-08-25T14:45:41;4.93;;;3.60;;
12958;SDS011;6544;51.666;6.634;2022-08-25T14:48:12;5.75;;;3.72;;
12958;SDS011;6544;51.666;6.634;2022-08-25T14:50:43;5.95;;;3.50;;
12958;SDS011;6544;51.666;6.634;2022-08-25T14:53:11;5.32;;;3.78;;
12958;SDS011;6544;51.666;6.634;2022-08-25T14:55:38;5.32;;;3.60;;
12958;SDS011;6544;51.666;6.634;2022-08-25T14:58:05;6.45;;;3.80;;
12958;SDS011;6544;51.666;6.634;2022-08-25T15:00:32;5.43;;;3.78;;
12958;SDS011;6544;51.666;6.634;2022-08-25T15:03:01;5.00;;;3.40;;
12958;SDS011;6544;51.666;6.634;2022-08-25T15:05:29;5.00;;;3.78;;
12958;SDS011;6544;51.666;6.634;2022-08-25T15:07:56;9.18;;;3.90;;
12958;SDS011;6544;51.666;6.634;2022-08-25T15:10:40;5.25;;;3.80;;
12958;SDS011;6544;51.666;6.634;2022-08-25T15:13:07;5.00;;;3.80;;
12958;SDS011;6544;51.666;6.634;2022-08-25T15:15:36;6.38;;;3.70;;
12958;SDS011;6544;51.666;6.634;2022-08-25T15:18:06;4.88;;;3.92;;
12958;SDS011;6544;51.666;6.634;2022-08-25T15:20:33;5.82;;;3.70;;
12958;SDS011;6544;51.666;6.634;2022-08-25T15:23:00;5.32;;;3.42;;
12958;SDS011;6544;51.666;6.634;2022-08-25T15:25:28;5.32;;;3.67;;
12958;SDS011;6544;51.666;6.634;2022-08-25T15:27:54;5.50;;;3.55;;
12958;SDS011;6544;51.666;6.634;2022-08-25T15:30:22;11.32;;;3.92;;
12958;SDS011;6544;51.666;6.634;2022-08-25T15:32:48;7.88;;;4.10;;
12958;SDS011;6544;51.666;6.634;2022-08-25T15:35:17;5.30;;;3.90;;
12958;SDS011;6544;51.666;6.634;2022-08-25T15:37:44;4.95;;;3.47;;